createdAt,value
2023-04-16T00:02:14.170Z,14.35
2023-04-16T00:04:41.537Z,10.63
2023-04-16T00:07:08.933Z,10.90
2023-04-16T00:09:36.013Z,11.38
2023-04-16T00:12:03.510Z,11.90
2023-04-16T00:14:30.788Z,10.93
2023-04-16T00:16:57.776Z,11.38
2023-04-16T00:19:24.764Z,11.17
2023-04-16T00:21:51.792Z,12.27
2023-04-16T00:24:18.852Z,10.60
2023-04-16T00:26:46.522Z,10.85
2023-04-16T00:29:13.399Z,12.50
2023-04-16T00:31:40.510Z,10.97
2023-04-16T00:34:07.599Z,11.52
2023-04-16T00:36:34.443Z,10.35
2023-04-16T00:39:01.350Z,16.40
2023-04-16T00:41:28.457Z,12.20
2023-04-16T00:43:55.370Z,11.23
2023-04-16T00:46:23.943Z,12.60
2023-04-16T00:48:52.858Z,10.57
2023-04-16T00:51:21.661Z,13.02
2023-04-16T00:53:48.839Z,10.85
2023-04-16T00:56:17.513Z,10.37
2023-04-16T00:58:45.272Z,9.95
2023-04-16T01:01:14.355Z,11.57
2023-04-16T01:03:45.309Z,11.30
2023-04-16T01:06:12.836Z,13.77
2023-04-16T01:08:40.197Z,13.87
2023-04-16T01:11:07.133Z,12.73
2023-04-16T01:13:39.440Z,12.40
2023-04-16T01:16:11.495Z,11.80
2023-04-16T01:18:39.351Z,11.50
2023-04-16T01:21:06.745Z,14.30
2023-04-16T01:23:33.895Z,12.68
2023-04-16T01:26:01.546Z,11.57
2023-04-16T01:28:28.508Z,15.65
2023-04-16T01:30:55.922Z,12.18
2023-04-16T01:33:23.674Z,12.40
2023-04-16T01:35:50.742Z,12.30
2023-04-16T01:38:17.814Z,11.63
2023-04-16T01:40:44.714Z,11.93
2023-04-16T01:43:11.810Z,12.65
2023-04-16T01:45:38.677Z,11.73
2023-04-16T01:48:06.104Z,12.25
2023-04-16T01:50:33.599Z,12.05
2023-04-16T01:53:02.212Z,13.70
2023-04-16T01:55:29.227Z,13.32
2023-04-16T01:57:56.340Z,12.33
2023-04-16T02:00:23.366Z,12.23
2023-04-16T02:02:51.070Z,11.55
2023-04-16T02:05:18.332Z,11.38
2023-04-16T02:07:45.516Z,13.15
2023-04-16T02:10:12.352Z,12.70
2023-04-16T02:12:39.483Z,11.40
2023-04-16T02:15:07.264Z,13.75
2023-04-16T02:17:34.202Z,13.35
2023-04-16T02:20:05.854Z,12.27
2023-04-16T02:22:32.820Z,11.27
2023-04-16T02:24:59.673Z,9.95
2023-04-16T02:27:27.247Z,10.32
2023-04-16T02:29:54.112Z,11.50
2023-04-16T02:32:22.337Z,11.65
2023-04-16T02:34:49.446Z,11.97
2023-04-16T02:37:16.335Z,10.90
2023-04-16T02:39:44.160Z,13.55
2023-04-16T02:42:11.337Z,13.00
2023-04-16T02:44:38.430Z,13.05
2023-04-16T02:47:05.552Z,11.13
2023-04-16T02:49:32.777Z,10.60
2023-04-16T02:52:01.202Z,10.77
2023-04-16T02:54:28.030Z,12.23
2023-04-16T02:56:54.970Z,11.25
2023-04-16T02:59:22.037Z,13.20
2023-04-16T03:01:49.087Z,11.30
2023-04-16T03:04:16.475Z,14.38
2023-04-16T03:06:43.582Z,12.45
2023-04-16T03:09:10.578Z,13.35
2023-04-16T03:11:38.041Z,11.43
2023-04-16T03:14:04.973Z,11.30
2023-04-16T03:16:32.233Z,11.15
2023-04-16T03:18:59.383Z,10.32
2023-04-16T03:21:27.695Z,12.30
2023-04-16T03:23:56.313Z,11.90
2023-04-16T03:26:23.638Z,10.23
2023-04-16T03:28:50.850Z,10.90
2023-04-16T03:31:17.892Z,11.63
2023-04-16T03:33:45.896Z,9.93
2023-04-16T03:36:12.791Z,11.70
2023-04-16T03:38:39.946Z,10.93
2023-04-16T03:41:06.844Z,9.88
2023-04-16T03:43:34.013Z,11.65
2023-04-16T03:46:01.086Z,11.32
2023-04-16T03:48:28.628Z,13.27
2023-04-16T03:50:56.062Z,12.63
2023-04-16T03:53:23.318Z,11.52
2023-04-16T03:55:51.694Z,9.95
2023-04-16T03:58:20.059Z,11.35
2023-04-16T04:00:47.429Z,12.13
2023-04-16T04:03:17.368Z,11.88
2023-04-16T04:05:44.566Z,12.88
2023-04-16T04:08:11.726Z,10.80
2023-04-16T04:10:38.845Z,12.23
2023-04-16T04:13:06.757Z,12.47
2023-04-16T04:15:33.973Z,15.02
2023-04-16T04:18:00.959Z,11.38
2023-04-16T04:20:28.021Z,12.32
2023-04-16T04:22:55.301Z,14.40
2023-04-16T04:25:22.186Z,12.40
2023-04-16T04:27:49.399Z,12.82
2023-04-16T04:30:16.339Z,13.80
2023-04-16T04:32:43.722Z,12.02
2023-04-16T04:35:10.747Z,13.62
2023-04-16T04:37:37.644Z,13.57
2023-04-16T04:40:04.866Z,14.48
2023-04-16T04:42:31.978Z,15.50
2023-04-16T04:44:58.927Z,13.85
2023-04-16T04:47:26.286Z,12.85
2023-04-16T04:49:53.436Z,14.00
2023-04-16T04:52:20.851Z,12.68
2023-04-16T04:54:47.892Z,15.55
2023-04-16T04:57:15.109Z,12.43
2023-04-16T04:59:42.187Z,11.55
2023-04-16T05:02:09.254Z,12.60
2023-04-16T05:04:36.185Z,12.85
2023-04-16T05:07:03.166Z,13.13
2023-04-16T05:09:30.899Z,12.88
2023-04-16T05:11:58.799Z,11.38
2023-04-16T05:14:25.791Z,11.20
2023-04-16T05:16:52.791Z,11.88
2023-04-16T05:19:19.983Z,12.27
2023-04-16T05:21:47.011Z,11.73
2023-04-16T05:24:15.091Z,11.68
2023-04-16T05:26:42.118Z,11.10
2023-04-16T05:29:09.502Z,11.00
2023-04-16T05:31:36.690Z,13.32
2023-04-16T05:34:03.675Z,12.85
2023-04-16T05:36:30.784Z,12.60
2023-04-16T05:38:57.822Z,13.07
2023-04-16T05:41:24.984Z,11.57
2023-04-16T05:43:51.841Z,13.70
2023-04-16T05:46:18.763Z,10.20
2023-04-16T05:48:46.133Z,11.02
2023-04-16T05:51:13.208Z,9.93
2023-04-16T05:53:41.043Z,11.25
2023-04-16T05:56:08.459Z,10.10
2023-04-16T05:58:35.461Z,12.80
2023-04-16T06:01:02.598Z,9.95
2023-04-16T06:03:30.214Z,9.30
2023-04-16T06:05:57.422Z,9.05
2023-04-16T06:08:24.708Z,9.98
2023-04-16T06:10:51.729Z,14.13
2023-04-16T06:13:18.874Z,12.75
2023-04-16T06:15:45.859Z,12.20
2023-04-16T06:18:13.038Z,9.10
2023-04-16T06:20:39.986Z,8.57
2023-04-16T06:23:06.839Z,7.18
2023-04-16T06:25:33.766Z,6.62
2023-04-16T06:28:00.686Z,6.73
2023-04-16T06:30:27.792Z,6.00
2023-04-16T06:32:55.078Z,5.30
2023-04-16T06:35:22.074Z,5.22
2023-04-16T06:37:49.289Z,7.50
2023-04-16T06:40:16.618Z,5.87
2023-04-16T06:42:45.391Z,6.95
2023-04-16T06:45:12.916Z,7.35
2023-04-16T06:47:39.914Z,5.78
2023-04-16T06:50:07.568Z,6.00
2023-04-16T06:52:34.659Z,10.23
2023-04-16T06:55:02.052Z,5.40
2023-04-16T06:57:29.012Z,5.90
2023-04-16T06:59:55.957Z,6.47
2023-04-16T07:02:24.329Z,6.10
2023-04-16T07:04:52.435Z,5.13
2023-04-16T07:07:19.436Z,5.57
2023-04-16T07:09:46.490Z,5.87
2023-04-16T07:12:13.544Z,4.47
2023-04-16T07:14:41.153Z,5.12
2023-04-16T07:17:08.126Z,5.23
2023-04-16T07:19:35.637Z,5.57
2023-04-16T07:22:03.173Z,3.92
2023-04-16T07:24:30.619Z,4.43
2023-04-16T07:26:57.866Z,4.53
2023-04-16T07:29:24.898Z,4.70
2023-04-16T07:31:51.840Z,4.45
2023-04-16T07:34:19.048Z,3.90
2023-04-16T07:36:46.071Z,4.45
2023-04-16T07:39:13.351Z,4.35
2023-04-16T07:41:41.270Z,4.93
2023-04-16T07:44:09.598Z,6.35
2023-04-16T07:46:46.376Z,3.47
2023-04-16T07:49:15.017Z,4.32
2023-04-16T07:51:42.360Z,3.92
2023-04-16T07:54:10.760Z,4.33
2023-04-16T07:56:44.968Z,6.32
2023-04-16T07:59:22.104Z,3.75
2023-04-16T08:01:53.656Z,4.47
2023-04-16T08:04:25.462Z,4.30
2023-04-16T08:06:53.472Z,3.40
2023-04-16T08:09:21.791Z,4.22
2023-04-16T08:11:50.076Z,3.70
2023-04-16T08:14:18.617Z,4.30
2023-04-16T08:16:45.804Z,2.95
2023-04-16T08:19:12.921Z,4.00
2023-04-16T08:21:40.512Z,3.85
2023-04-16T08:24:07.432Z,4.10
2023-04-16T08:26:34.545Z,4.00
2023-04-16T08:29:01.653Z,4.25
2023-04-16T08:31:29.052Z,3.10
2023-04-16T08:33:56.166Z,2.90
2023-04-16T08:36:23.029Z,3.70
2023-04-16T08:38:50.724Z,3.15
2023-04-16T08:41:18.071Z,2.33
2023-04-16T08:43:48.276Z,2.53
2023-04-16T08:46:17.792Z,4.10
2023-04-16T08:48:49.471Z,2.62
2023-04-16T08:51:19.630Z,2.60
2023-04-16T08:53:54.037Z,3.22
2023-04-16T08:56:23.943Z,3.73
2023-04-16T08:58:55.025Z,2.83
2023-04-16T09:01:23.072Z,3.15
2023-04-16T09:03:51.016Z,2.00
2023-04-16T09:06:18.496Z,3.10
2023-04-16T09:08:46.389Z,2.83
2023-04-16T09:11:14.496Z,2.35
2023-04-16T09:13:41.650Z,2.00
2023-04-16T09:16:09.882Z,2.50
2023-04-16T09:18:37.056Z,2.15
2023-04-16T09:21:04.852Z,3.93
2023-04-16T09:23:31.996Z,2.53
2023-04-16T09:25:59.928Z,3.45
2023-04-16T09:28:47.177Z,2.75
2023-04-16T09:31:15.887Z,3.28
2023-04-16T09:33:44.393Z,2.70
2023-04-16T09:36:11.498Z,4.70
2023-04-16T09:38:50.180Z,2.42
2023-04-16T09:41:17.422Z,1.90
2023-04-16T09:43:58.177Z,3.17
2023-04-16T09:46:35.809Z,2.80
2023-04-16T09:49:11.038Z,1.90
2023-04-16T09:51:41.348Z,3.00
2023-04-16T09:54:09.148Z,1.85
2023-04-16T09:56:44.889Z,2.55
2023-04-16T09:59:21.793Z,3.20
2023-04-16T10:01:50.189Z,2.03
2023-04-16T10:04:17.655Z,1.77
2023-04-16T10:06:46.961Z,2.33
2023-04-16T10:09:14.034Z,2.75
2023-04-16T10:11:41.404Z,2.23
2023-04-16T10:14:09.216Z,2.35
2023-04-16T10:16:37.016Z,1.98
2023-04-16T10:19:04.712Z,2.37
2023-04-16T10:21:34.448Z,4.30
2023-04-16T10:24:02.068Z,1.63
2023-04-16T10:26:30.628Z,2.00
2023-04-16T10:28:59.394Z,2.28
2023-04-16T10:31:28.135Z,1.25
2023-04-16T10:33:56.332Z,1.70
2023-04-16T10:36:25.087Z,1.70
2023-04-16T10:38:58.656Z,1.85
2023-04-16T10:41:27.361Z,2.70
2023-04-16T10:44:06.711Z,4.70
2023-04-16T10:46:38.793Z,2.10
2023-04-16T10:49:20.660Z,1.63
2023-04-16T10:52:22.505Z,1.70
2023-04-16T10:54:52.682Z,1.48
2023-04-16T10:57:20.786Z,1.10
2023-04-16T10:59:49.503Z,1.60
2023-04-16T11:02:18.826Z,2.07
2023-04-16T11:04:48.275Z,1.40
2023-04-16T11:07:20.826Z,3.25
2023-04-16T11:09:56.763Z,1.67
2023-04-16T11:12:26.955Z,3.05
2023-04-16T11:15:15.927Z,2.30
2023-04-16T11:17:47.887Z,1.77
2023-04-16T11:20:23.362Z,1.98
2023-04-16T11:22:52.649Z,2.00
2023-04-16T11:25:24.960Z,2.15
2023-04-16T11:27:53.236Z,0.60
2023-04-16T11:30:29.933Z,1.35
2023-04-16T11:32:57.227Z,1.27
2023-04-16T11:35:24.653Z,0.98
2023-04-16T11:37:56.577Z,0.90
2023-04-16T11:40:24.218Z,1.63
2023-04-16T11:42:51.278Z,0.50
2023-04-16T11:45:19.683Z,1.08
2023-04-16T11:47:55.534Z,1.37
2023-04-16T11:50:23.899Z,1.55
2023-04-16T11:52:52.996Z,1.47
2023-04-16T11:55:20.838Z,1.12
2023-04-16T11:57:48.945Z,0.80
2023-04-16T12:00:19.276Z,0.93
2023-04-16T12:02:53.868Z,1.12
2023-04-16T12:05:41.529Z,5.43
2023-04-16T12:08:10.942Z,1.83
2023-04-16T12:10:53.310Z,2.70
2023-04-16T12:13:20.327Z,2.22
2023-04-16T12:15:49.355Z,2.08
2023-04-16T12:18:18.023Z,2.70
2023-04-16T12:20:45.964Z,1.20
2023-04-16T12:23:24.186Z,1.40
2023-04-16T12:25:52.235Z,1.37
2023-04-16T12:28:33.331Z,2.12
2023-04-16T12:31:01.742Z,0.87
2023-04-16T12:33:29.457Z,1.23
2023-04-16T12:35:56.708Z,1.10
2023-04-16T12:38:24.650Z,2.00
2023-04-16T12:40:52.867Z,0.93
2023-04-16T12:43:22.016Z,1.50
2023-04-16T12:45:49.583Z,2.30
2023-04-16T12:48:16.973Z,1.35
2023-04-16T12:50:44.544Z,1.45
2023-04-16T12:53:12.229Z,1.83
2023-04-16T12:55:39.566Z,1.07
2023-04-16T12:58:07.042Z,1.12
2023-04-16T13:00:34.351Z,2.60
2023-04-16T13:03:01.737Z,2.50
2023-04-16T13:05:29.303Z,1.33
2023-04-16T13:07:56.221Z,1.50
2023-04-16T13:10:23.664Z,1.05
2023-04-16T13:12:51.070Z,0.88
2023-04-16T13:15:18.521Z,2.47
2023-04-16T13:17:45.604Z,2.28
2023-04-16T13:20:12.949Z,0.93
2023-04-16T13:22:40.683Z,1.10
2023-04-16T13:25:08.768Z,2.45
2023-04-16T13:27:36.504Z,1.08
2023-04-16T13:30:03.981Z,1.62
2023-04-16T13:32:32.310Z,0.87
2023-04-16T13:34:59.434Z,0.70
2023-04-16T13:37:26.949Z,0.88
2023-04-16T13:39:54.711Z,0.82
2023-04-16T13:42:22.552Z,3.83
2023-04-16T13:44:53.652Z,0.80
2023-04-16T13:47:21.497Z,1.52
2023-04-16T13:49:49.087Z,1.55
2023-04-16T13:52:16.445Z,1.10
2023-04-16T13:54:43.606Z,1.00
2023-04-16T13:57:11.430Z,1.10
2023-04-16T13:59:39.168Z,1.85
2023-04-16T14:02:06.791Z,2.33
2023-04-16T14:04:33.928Z,0.80
2023-04-16T14:07:01.500Z,1.90
2023-04-16T14:09:28.792Z,1.43
2023-04-16T14:11:56.320Z,2.08
2023-04-16T14:14:23.635Z,2.75
2023-04-16T14:16:50.916Z,0.95
2023-04-16T14:19:18.588Z,0.98
2023-04-16T14:21:46.392Z,1.20
2023-04-16T14:24:13.328Z,1.20
2023-04-16T14:26:40.496Z,1.48
2023-04-16T14:29:08.897Z,1.85
2023-04-16T14:31:37.223Z,1.42
2023-04-16T14:34:04.937Z,1.30
2023-04-16T14:36:32.320Z,2.50
2023-04-16T14:38:59.841Z,1.60
2023-04-16T14:41:28.086Z,1.17
2023-04-16T14:43:55.482Z,1.80
2023-04-16T14:46:23.077Z,1.40
2023-04-16T14:48:50.338Z,1.40
2023-04-16T14:51:17.396Z,1.85
2023-04-16T14:53:44.792Z,2.40
2023-04-16T14:56:13.178Z,3.10
2023-04-16T14:58:40.349Z,2.70
2023-04-16T15:01:07.454Z,1.20
2023-04-16T15:03:35.045Z,1.20
2023-04-16T15:06:03.124Z,1.75
2023-04-16T15:08:30.643Z,1.30
2023-04-16T15:10:58.254Z,2.97
2023-04-16T15:13:25.697Z,1.05
2023-04-16T15:15:53.127Z,0.62
2023-04-16T15:18:20.296Z,0.60
2023-04-16T15:20:47.901Z,1.23
2023-04-16T15:23:15.693Z,1.23
2023-04-16T15:25:49.966Z,1.45
2023-04-16T15:28:17.327Z,1.00
2023-04-16T15:30:45.275Z,5.03
2023-04-16T15:33:12.612Z,3.03
2023-04-16T15:35:41.736Z,3.27
2023-04-16T15:38:09.388Z,1.73
2023-04-16T15:40:37.250Z,1.80
2023-04-16T15:43:06.428Z,0.95
2023-04-16T15:45:34.308Z,1.15
2023-04-16T15:48:02.942Z,1.73
2023-04-16T15:50:32.421Z,2.00
2023-04-16T15:53:01.169Z,2.17
2023-04-16T15:55:28.818Z,4.70
2023-04-16T15:57:56.300Z,1.92
2023-04-16T16:00:25.041Z,0.90
2023-04-16T16:02:53.433Z,2.60
2023-04-16T16:05:21.217Z,1.58
2023-04-16T16:07:49.557Z,0.90
2023-04-16T16:10:17.206Z,0.70
2023-04-16T16:12:44.898Z,1.93
2023-04-16T16:15:13.003Z,1.83
2023-04-16T16:17:40.881Z,1.08
2023-04-16T16:20:13.398Z,1.70
2023-04-16T16:22:45.299Z,2.55
2023-04-16T16:25:12.470Z,1.80
2023-04-16T16:27:41.337Z,1.15
2023-04-16T16:30:10.371Z,0.95
2023-04-16T16:32:41.246Z,1.50
2023-04-16T16:35:09.625Z,1.65
2023-04-16T16:37:38.474Z,1.57
2023-04-16T16:40:08.131Z,1.98
2023-04-16T16:42:36.262Z,1.12
2023-04-16T16:45:06.446Z,1.02
2023-04-16T16:47:34.059Z,2.65
2023-04-16T16:50:02.934Z,1.83
2023-04-16T16:52:30.716Z,1.73
2023-04-16T16:54:58.643Z,1.42
2023-04-16T16:57:26.215Z,1.20
2023-04-16T16:59:56.772Z,1.42
2023-04-16T17:02:25.001Z,2.13
2023-04-16T17:04:53.201Z,1.58
2023-04-16T17:07:21.226Z,1.30
2023-04-16T17:09:50.759Z,1.50
2023-04-16T17:12:19.626Z,2.53
2023-04-16T17:14:51.933Z,3.20
2023-04-16T17:17:19.387Z,1.92
2023-04-16T17:19:47.278Z,3.35
2023-04-16T17:22:14.659Z,2.70
2023-04-16T17:24:42.497Z,1.55
2023-04-16T17:27:10.730Z,3.20
2023-04-16T17:29:38.763Z,1.73
2023-04-16T17:32:06.779Z,3.75
2023-04-16T17:34:35.223Z,5.53
2023-04-16T17:37:02.857Z,4.70
2023-04-16T17:39:31.057Z,2.90
2023-04-16T17:42:01.696Z,3.85
2023-04-16T17:44:38.781Z,1.50
2023-04-16T17:47:06.650Z,7.47
2023-04-16T17:49:34.373Z,5.03
2023-04-16T17:52:04.189Z,2.33
2023-04-16T17:54:32.244Z,1.95
2023-04-16T17:57:00.360Z,2.00
2023-04-16T17:59:28.707Z,2.47
2023-04-16T18:01:58.242Z,1.95
2023-04-16T18:04:26.097Z,1.67
2023-04-16T18:06:53.862Z,2.05
2023-04-16T18:09:23.273Z,3.55
2023-04-16T18:11:50.742Z,2.85
2023-04-16T18:14:21.073Z,3.50
2023-04-16T18:16:50.071Z,1.50
2023-04-16T18:19:18.086Z,2.58
2023-04-16T18:21:45.498Z,2.17
2023-04-16T18:24:15.652Z,3.00
2023-04-16T18:26:46.241Z,2.50
2023-04-16T18:29:17.631Z,3.80
2023-04-16T18:31:46.578Z,2.40
2023-04-16T18:34:14.081Z,3.50
2023-04-16T18:36:41.712Z,4.97
2023-04-16T18:39:10.628Z,2.35
2023-04-16T18:41:38.675Z,1.50
2023-04-16T18:44:06.051Z,1.90
2023-04-16T18:46:33.620Z,1.50
2023-04-16T18:49:01.435Z,1.95
2023-04-16T18:51:31.127Z,1.45
2023-04-16T18:53:58.828Z,1.70
2023-04-16T18:56:26.709Z,2.05
2023-04-16T18:58:54.855Z,1.40
2023-04-16T19:01:23.195Z,2.50
2023-04-16T19:03:51.197Z,2.85
2023-04-16T19:06:19.230Z,2.70
2023-04-16T19:08:47.005Z,2.33
2023-04-16T19:11:14.414Z,4.72
2023-04-16T19:13:42.528Z,1.60
2023-04-16T19:16:12.973Z,2.22
2023-04-16T19:18:43.275Z,2.20
2023-04-16T19:21:11.939Z,1.80
2023-04-16T19:23:39.631Z,2.12
2023-04-16T19:26:10.132Z,1.62
2023-04-16T19:28:38.893Z,2.25
2023-04-16T19:31:07.563Z,2.20
2023-04-16T19:33:36.569Z,5.20
2023-04-16T19:36:04.768Z,5.47
2023-04-16T19:38:32.509Z,4.43
2023-04-16T19:41:00.951Z,5.72
2023-04-16T19:43:32.530Z,5.20
2023-04-16T19:46:01.933Z,6.00
2023-04-16T19:48:31.050Z,3.15
2023-04-16T19:51:02.774Z,1.50
2023-04-16T19:53:31.086Z,1.77
2023-04-16T19:55:59.872Z,1.13
2023-04-16T19:58:27.698Z,1.87
2023-04-16T20:00:56.705Z,1.83
2023-04-16T20:03:25.278Z,1.40
2023-04-16T20:05:53.469Z,1.92
2023-04-16T20:08:20.987Z,2.57
2023-04-16T20:10:49.826Z,1.23
2023-04-16T20:13:18.861Z,1.65
2023-04-16T20:15:47.408Z,1.45
2023-04-16T20:18:15.715Z,2.03
2023-04-16T20:20:43.766Z,1.40
2023-04-16T20:23:11.381Z,3.30
2023-04-16T20:25:46.604Z,1.35
2023-04-16T20:28:16.397Z,1.40
2023-04-16T20:30:43.326Z,1.83
2023-04-16T20:33:10.988Z,1.70
2023-04-16T20:35:38.011Z,2.30
2023-04-16T20:38:05.354Z,1.90
2023-04-16T20:40:32.624Z,2.22
2023-04-16T20:43:00.196Z,1.95
2023-04-16T20:45:38.287Z,1.97
2023-04-16T20:48:05.839Z,2.03
2023-04-16T20:50:33.488Z,1.30
2023-04-16T20:53:00.794Z,2.78
2023-04-16T20:55:27.620Z,1.60
2023-04-16T20:57:54.709Z,2.00
2023-04-16T21:00:22.649Z,2.35
2023-04-16T21:02:49.906Z,1.98
2023-04-16T21:05:17.112Z,1.90
2023-04-16T21:07:44.243Z,2.12
2023-04-16T21:10:11.471Z,1.50
2023-04-16T21:12:38.610Z,1.45
2023-04-16T21:15:06.045Z,2.03
2023-04-16T21:17:32.974Z,1.75
2023-04-16T21:20:00.009Z,1.48
2023-04-16T21:22:27.256Z,1.23
2023-04-16T21:24:54.579Z,1.48
2023-04-16T21:27:21.498Z,1.12
2023-04-16T21:29:48.416Z,1.20
2023-04-16T21:32:15.339Z,1.73
2023-04-16T21:34:42.300Z,2.23
2023-04-16T21:37:10.408Z,2.65
2023-04-16T21:39:37.500Z,3.80
2023-04-16T21:42:04.649Z,1.60
2023-04-16T21:44:32.165Z,2.28
2023-04-16T21:46:59.124Z,2.60
2023-04-16T21:49:26.205Z,1.65
2023-04-16T21:51:59.173Z,1.55
2023-04-16T21:54:26.264Z,3.37
2023-04-16T21:56:53.149Z,3.08
2023-04-16T21:59:19.974Z,2.83
2023-04-16T22:01:47.016Z,1.55
2023-04-16T22:04:14.150Z,1.58
2023-04-16T22:06:41.076Z,3.65
2023-04-16T22:09:07.956Z,2.87
2023-04-16T22:11:34.977Z,1.87
2023-04-16T22:14:03.109Z,4.12
2023-04-16T22:16:31.181Z,2.35
2023-04-16T22:18:58.508Z,2.47
2023-04-16T22:21:26.059Z,2.35
2023-04-16T22:23:52.856Z,2.10
2023-04-16T22:26:19.732Z,2.78
2023-04-16T22:28:47.346Z,3.87
2023-04-16T22:31:14.658Z,1.20
2023-04-16T22:33:41.456Z,1.55
2023-04-16T22:36:08.662Z,3.00
2023-04-16T22:38:35.853Z,2.95
2023-04-16T22:41:03.083Z,2.08
2023-04-16T22:43:30.264Z,1.83
2023-04-16T22:46:08.096Z,3.53
2023-04-16T22:48:38.257Z,1.70
2023-04-16T22:51:07.501Z,1.85
2023-04-16T22:53:34.633Z,1.83
2023-04-16T22:56:01.495Z,4.43
2023-04-16T22:58:28.563Z,1.92
2023-04-16T23:00:57.575Z,3.40
2023-04-16T23:03:25.431Z,2.05
2023-04-16T23:05:52.523Z,2.35
2023-04-16T23:08:19.381Z,2.65
2023-04-16T23:10:46.229Z,2.08
2023-04-16T23:13:13.665Z,3.77
2023-04-16T23:15:40.628Z,2.80
2023-04-16T23:18:08.254Z,1.70
2023-04-16T23:20:35.629Z,1.83
2023-04-16T23:23:02.598Z,2.15
2023-04-16T23:25:29.469Z,1.70
2023-04-16T23:27:56.877Z,1.30
2023-04-16T23:30:24.157Z,1.50
2023-04-16T23:32:51.619Z,1.50
2023-04-16T23:35:22.870Z,1.30
2023-04-16T23:37:49.976Z,0.90
2023-04-16T23:40:17.057Z,1.40
2023-04-16T23:42:43.962Z,1.40
2023-04-16T23:45:11.838Z,2.65
2023-04-16T23:47:39.136Z,2.53
2023-04-16T23:50:06.806Z,1.73
2023-04-16T23:52:34.105Z,1.65
2023-04-16T23:55:01.042Z,3.55
2023-04-16T23:57:27.902Z,1.10
2023-04-16T23:59:55.024Z,1.92
